createdAt,value
2019-01-26T00:00:34.242Z,91.80
2019-01-26T00:01:34.195Z,89.30
2019-01-26T00:02:34.142Z,95.60
2019-01-26T00:03:34.092Z,99.30
2019-01-26T00:04:34.043Z,102.10
2019-01-26T00:05:33.995Z,93.60
2019-01-26T00:06:33.975Z,102.70
2019-01-26T00:07:33.895Z,99.50
2019-01-26T00:08:33.846Z,99.30
2019-01-26T00:09:33.794Z,112.50
2019-01-26T00:10:33.775Z,97.10
2019-01-26T00:11:33.694Z,104.60
2019-01-26T00:12:33.644Z,103.30
2019-01-26T00:13:33.595Z,106.30
2019-01-26T00:14:33.544Z,108.10
2019-01-26T00:15:33.530Z,112.30
2019-01-26T00:16:33.445Z,109.10
2019-01-26T00:17:33.403Z,111.90
2019-01-26T00:18:33.346Z,110.20
2019-01-26T00:19:33.296Z,112.70
2019-01-26T00:20:36.443Z,107.20
2019-01-26T00:21:33.203Z,109.30
2019-01-26T00:22:33.146Z,108.50
2019-01-26T00:23:33.095Z,102.60
2019-01-26T00:24:33.046Z,113.50
2019-01-26T00:25:32.996Z,107.80
2019-01-26T00:26:36.375Z,116.90
2019-01-26T00:27:32.895Z,118.00
2019-01-26T00:28:32.848Z,116.70
2019-01-26T00:29:32.797Z,108.10
2019-01-26T00:30:32.747Z,119.20
2019-01-26T00:31:32.697Z,117.50
2019-01-26T00:32:32.648Z,117.30
2019-01-26T00:33:32.600Z,123.40
2019-01-26T00:34:32.548Z,119.60
2019-01-26T00:35:32.498Z,118.30
2019-01-26T00:36:32.450Z,119.60
2019-01-26T00:37:32.398Z,122.40
2019-01-26T00:38:32.348Z,117.80
2019-01-26T00:39:32.301Z,124.80
2019-01-26T00:40:32.257Z,120.90
2019-01-26T00:41:32.204Z,125.30
2019-01-26T00:42:32.152Z,129.30
2019-01-26T00:43:32.101Z,127.20
2019-01-26T00:44:32.052Z,123.10
2019-01-26T00:45:32.003Z,132.30
2019-01-26T00:46:31.951Z,131.10
2019-01-26T00:47:31.902Z,132.60
2019-01-26T00:48:31.850Z,134.60
2019-01-26T00:49:31.805Z,132.60
2019-01-26T00:50:31.755Z,140.00
2019-01-26T00:51:31.707Z,140.30
2019-01-26T00:52:31.664Z,127.20
2019-01-26T00:53:31.603Z,133.80
2019-01-26T00:54:31.565Z,139.70
2019-01-26T00:55:31.504Z,136.40
2019-01-26T00:56:31.467Z,135.30
2019-01-26T00:57:31.406Z,143.90
2019-01-26T00:58:31.362Z,129.60
2019-01-26T00:59:31.306Z,143.50
2019-01-26T01:00:31.255Z,147.10
2019-01-26T01:01:31.207Z,149.50
2019-01-26T01:02:31.159Z,164.40
2019-01-26T01:03:31.162Z,145.70
2019-01-26T01:04:31.056Z,150.60
2019-01-26T01:05:31.011Z,154.40
2019-01-26T01:06:30.960Z,162.10
2019-01-26T01:07:30.912Z,150.40
2019-01-26T01:08:30.862Z,149.60
2019-01-26T01:09:30.809Z,156.40
2019-01-26T01:10:30.759Z,156.10
2019-01-26T01:11:30.709Z,159.60
2019-01-26T01:12:32.011Z,143.20
2019-01-26T01:13:30.610Z,145.00
2019-01-26T01:14:30.561Z,156.20
2019-01-26T01:15:30.512Z,150.30
2019-01-26T01:16:35.795Z,148.60
2019-01-26T01:17:30.413Z,170.50
2019-01-26T01:18:30.365Z,158.30
2019-01-26T01:19:30.313Z,175.80
2019-01-26T01:20:30.269Z,162.10
2019-01-26T01:21:30.216Z,165.30
2019-01-26T01:22:30.166Z,168.20
2019-01-26T01:23:30.139Z,175.60
2019-01-26T01:24:30.067Z,154.90
2019-01-26T01:25:30.018Z,157.50
2019-01-26T01:26:29.970Z,165.40
2019-01-26T01:27:29.918Z,173.80
2019-01-26T01:28:29.866Z,171.60
2019-01-26T01:29:29.817Z,162.70
2019-01-26T01:30:29.769Z,158.70
2019-01-26T01:31:29.719Z,168.30
2019-01-26T01:32:29.671Z,151.90
2019-01-26T01:33:29.619Z,174.20
2019-01-26T01:34:29.571Z,173.00
2019-01-26T01:35:29.521Z,174.80
2019-01-26T01:36:29.470Z,161.30
2019-01-26T01:37:29.422Z,172.20
2019-01-26T01:38:29.372Z,174.20
2019-01-26T01:39:29.434Z,164.80
2019-01-26T01:40:29.276Z,162.60
2019-01-26T01:41:29.226Z,173.50
2019-01-26T01:42:29.176Z,167.10
2019-01-26T01:43:29.123Z,169.60
2019-01-26T01:44:29.075Z,162.40
2019-01-26T01:45:29.028Z,173.30
2019-01-26T01:46:28.980Z,170.80
2019-01-26T01:47:28.927Z,171.70
2019-01-26T01:48:28.874Z,167.60
2019-01-26T01:49:28.828Z,159.50
2019-01-26T01:50:28.782Z,156.20
2019-01-26T01:51:28.727Z,157.40
2019-01-26T01:52:28.711Z,161.10
2019-01-26T01:53:28.629Z,164.30
2019-01-26T01:54:28.579Z,157.50
2019-01-26T01:55:28.529Z,171.90
2019-01-26T01:56:28.481Z,156.90
2019-01-26T01:57:28.431Z,159.20
2019-01-26T01:58:28.382Z,172.30
2019-01-26T01:59:28.331Z,180.00
2019-01-26T02:00:28.294Z,171.80
2019-01-26T02:01:28.236Z,170.50
2019-01-26T02:02:28.183Z,179.00
2019-01-26T02:03:28.132Z,172.00
2019-01-26T02:04:28.084Z,178.60
2019-01-26T02:05:28.035Z,182.40
2019-01-26T02:06:27.987Z,181.00
2019-01-26T02:07:27.938Z,162.90
2019-01-26T02:08:27.888Z,172.10
2019-01-26T02:09:27.838Z,173.40
2019-01-26T02:10:27.791Z,189.40
2019-01-26T02:11:27.740Z,172.90
2019-01-26T02:12:27.692Z,174.50
2019-01-26T02:13:32.494Z,189.00
2019-01-26T02:14:27.592Z,180.80
2019-01-26T02:15:27.551Z,180.90
2019-01-26T02:16:27.495Z,196.60
2019-01-26T02:17:27.442Z,211.20
2019-01-26T02:18:27.393Z,188.60
2019-01-26T02:19:27.344Z,180.40
2019-01-26T02:20:27.295Z,198.10
2019-01-26T02:21:27.280Z,181.50
2019-01-26T02:22:27.198Z,202.10
2019-01-26T02:23:27.145Z,205.10
2019-01-26T02:24:27.104Z,193.70
2019-01-26T02:25:27.047Z,215.30
2019-01-26T02:26:26.998Z,207.90
2019-01-26T02:27:26.945Z,193.90
2019-01-26T02:28:26.896Z,199.80
2019-01-26T02:29:26.849Z,199.90
2019-01-26T02:30:26.806Z,196.90
2019-01-26T02:31:26.753Z,223.20
2019-01-26T02:32:26.701Z,199.30
2019-01-26T02:33:26.650Z,207.10
2019-01-26T02:34:26.609Z,214.60
2019-01-26T02:35:26.553Z,221.80
2019-01-26T02:36:26.504Z,210.50
2019-01-26T02:37:26.456Z,221.70
2019-01-26T02:38:26.406Z,221.60
2019-01-26T02:39:26.361Z,209.30
2019-01-26T02:40:26.312Z,220.50
2019-01-26T02:41:26.258Z,192.00
2019-01-26T02:42:26.213Z,204.20
2019-01-26T02:43:26.159Z,207.00
2019-01-26T02:44:26.110Z,209.70
2019-01-26T02:45:26.060Z,200.60
2019-01-26T02:46:26.011Z,213.70
2019-01-26T02:47:25.972Z,228.70
2019-01-26T02:48:25.920Z,211.80
2019-01-26T02:49:25.866Z,207.70
2019-01-26T02:50:25.815Z,209.30
2019-01-26T02:51:25.765Z,219.10
2019-01-26T02:52:25.715Z,218.50
2019-01-26T02:53:25.664Z,224.20
2019-01-26T02:54:25.616Z,221.80
2019-01-26T02:55:25.567Z,195.80
2019-01-26T02:56:25.520Z,217.80
2019-01-26T02:57:25.470Z,211.10
2019-01-26T02:58:25.418Z,198.20
2019-01-26T02:59:25.371Z,216.80
2019-01-26T03:00:25.323Z,213.70
2019-01-26T03:01:25.273Z,221.80
2019-01-26T03:02:25.224Z,208.00
2019-01-26T03:03:25.180Z,199.40
2019-01-26T03:04:25.132Z,201.90
2019-01-26T03:05:25.073Z,216.30
2019-01-26T03:06:25.028Z,203.80
2019-01-26T03:07:24.977Z,202.60
2019-01-26T03:08:24.931Z,212.30
2019-01-26T03:09:24.878Z,209.00
2019-01-26T03:10:24.827Z,199.70
2019-01-26T03:11:24.779Z,203.90
2019-01-26T03:12:24.730Z,213.10
2019-01-26T03:13:24.680Z,207.90
2019-01-26T03:14:24.632Z,193.30
2019-01-26T03:15:24.583Z,198.40
2019-01-26T03:16:24.535Z,206.10
2019-01-26T03:17:24.486Z,204.80
2019-01-26T03:18:24.435Z,198.20
2019-01-26T03:19:24.387Z,217.50
2019-01-26T03:20:24.336Z,201.80
2019-01-26T03:21:24.294Z,204.80
2019-01-26T03:22:24.237Z,222.60
2019-01-26T03:23:24.189Z,196.30
2019-01-26T03:24:24.142Z,206.10
2019-01-26T03:25:24.091Z,210.30
2019-01-26T03:26:24.049Z,202.60
2019-01-26T03:27:23.993Z,226.30
2019-01-26T03:28:23.945Z,203.70
2019-01-26T03:29:23.898Z,202.00
2019-01-26T03:30:23.860Z,199.30
2019-01-26T03:31:23.813Z,185.70
2019-01-26T03:32:23.747Z,193.70
2019-01-26T03:33:23.698Z,194.70
2019-01-26T03:34:23.648Z,205.00
2019-01-26T03:35:23.601Z,192.80
2019-01-26T03:36:23.549Z,198.20
2019-01-26T03:37:23.499Z,200.80
2019-01-26T03:38:23.453Z,209.40
2019-01-26T03:39:23.407Z,200.90
2019-01-26T03:40:23.354Z,197.10
2019-01-26T03:41:23.307Z,200.10
2019-01-26T03:42:23.256Z,204.60
2019-01-26T03:43:23.207Z,194.70
2019-01-26T03:44:23.158Z,205.10
2019-01-26T03:45:23.115Z,195.70
2019-01-26T03:46:23.058Z,196.00
2019-01-26T03:47:23.008Z,196.20
2019-01-26T03:48:22.960Z,193.80
2019-01-26T03:49:22.920Z,187.50
2019-01-26T03:50:22.862Z,189.10
2019-01-26T03:51:22.810Z,198.90
2019-01-26T03:52:22.767Z,197.40
2019-01-26T03:53:22.716Z,203.80
2019-01-26T03:54:22.670Z,191.90
2019-01-26T03:55:22.616Z,205.40
2019-01-26T03:56:22.573Z,188.70
2019-01-26T03:57:22.524Z,200.70
2019-01-26T03:58:22.477Z,200.40
2019-01-26T03:59:22.446Z,192.60
2019-01-26T04:00:22.414Z,183.20
2019-01-26T04:01:22.324Z,194.70
2019-01-26T04:02:22.273Z,197.70
2019-01-26T04:03:22.225Z,194.20
2019-01-26T04:04:22.175Z,183.40
2019-01-26T04:05:22.154Z,191.20
2019-01-26T04:06:22.090Z,178.30
2019-01-26T04:07:22.032Z,188.80
2019-01-26T04:08:21.979Z,178.40
2019-01-26T04:09:21.930Z,184.50
2019-01-26T04:10:21.888Z,184.10
2019-01-26T04:11:21.831Z,182.10
2019-01-26T04:12:21.787Z,175.30
2019-01-26T04:13:21.733Z,175.40
2019-01-26T04:14:21.684Z,184.30
2019-01-26T04:15:21.636Z,179.40
2019-01-26T04:16:21.587Z,188.00
2019-01-26T04:17:22.107Z,191.30
2019-01-26T04:18:21.492Z,179.60
2019-01-26T04:19:21.440Z,187.00
2019-01-26T04:20:21.395Z,188.00
2019-01-26T04:21:21.348Z,183.20
2019-01-26T04:22:21.292Z,178.70
2019-01-26T04:23:21.244Z,192.60
2019-01-26T04:24:21.195Z,183.70
2019-01-26T04:25:21.147Z,185.20
2019-01-26T04:26:21.102Z,183.40
2019-01-26T04:27:21.052Z,181.20
2019-01-26T04:28:20.998Z,184.70
2019-01-26T04:29:20.956Z,189.00
2019-01-26T04:30:20.902Z,181.50
2019-01-26T04:31:20.852Z,181.30
2019-01-26T04:32:20.818Z,171.40
2019-01-26T04:33:20.757Z,190.00
2019-01-26T04:34:20.708Z,182.90
2019-01-26T04:35:20.657Z,172.90
2019-01-26T04:36:20.615Z,191.40
2019-01-26T04:37:20.560Z,189.20
2019-01-26T04:38:20.515Z,181.10
2019-01-26T04:39:20.459Z,175.80
2019-01-26T04:40:20.415Z,174.70
2019-01-26T04:41:20.363Z,182.90
2019-01-26T04:42:20.320Z,189.80
2019-01-26T04:43:20.263Z,175.60
2019-01-26T04:44:20.217Z,182.60
2019-01-26T04:45:20.169Z,179.60
2019-01-26T04:46:20.120Z,192.30
2019-01-26T04:47:20.073Z,179.80
2019-01-26T04:48:20.020Z,181.90
2019-01-26T04:49:19.977Z,181.80
2019-01-26T04:50:19.923Z,181.40
2019-01-26T04:51:19.876Z,179.00
2019-01-26T04:52:19.824Z,185.50
2019-01-26T04:53:19.775Z,188.10
2019-01-26T04:54:19.726Z,187.10
2019-01-26T04:55:19.687Z,186.20
2019-01-26T04:56:19.626Z,187.70
2019-01-26T04:57:19.579Z,179.80
2019-01-26T04:58:19.528Z,185.50
2019-01-26T04:59:19.479Z,180.50
2019-01-26T05:00:19.439Z,190.50
2019-01-26T05:01:19.385Z,186.60
2019-01-26T05:02:19.370Z,194.50
2019-01-26T05:03:19.281Z,188.30
2019-01-26T05:04:19.235Z,187.70
2019-01-26T05:05:19.192Z,188.00
2019-01-26T05:06:19.138Z,183.30
2019-01-26T05:07:19.091Z,184.30
2019-01-26T05:08:19.042Z,194.20
2019-01-26T05:09:18.992Z,192.10
2019-01-26T05:10:18.942Z,180.00
2019-01-26T05:11:18.892Z,184.60
2019-01-26T05:12:18.845Z,188.50
2019-01-26T05:13:18.797Z,186.60
2019-01-26T05:14:18.744Z,201.60
2019-01-26T05:15:18.697Z,192.10
2019-01-26T05:16:18.649Z,185.60
2019-01-26T05:17:18.600Z,188.50
2019-01-26T05:18:18.550Z,196.20
2019-01-26T05:19:18.500Z,194.20
2019-01-26T05:20:18.454Z,189.70
2019-01-26T05:21:18.404Z,181.70
2019-01-26T05:22:18.354Z,184.40
2019-01-26T05:23:18.307Z,178.40
2019-01-26T05:24:18.259Z,184.70
2019-01-26T05:25:18.210Z,187.80
2019-01-26T05:26:18.159Z,177.10
2019-01-26T05:27:18.111Z,172.90
2019-01-26T05:28:18.065Z,180.00
2019-01-26T05:29:18.012Z,172.30
2019-01-26T05:30:17.965Z,171.30
2019-01-26T05:31:17.915Z,173.20
2019-01-26T05:32:17.869Z,183.40
2019-01-26T05:33:17.821Z,193.40
2019-01-26T05:34:17.770Z,184.40
2019-01-26T05:35:17.733Z,183.50
2019-01-26T05:36:17.669Z,184.70
2019-01-26T05:37:17.622Z,173.00
2019-01-26T05:38:17.582Z,175.00
2019-01-26T05:39:17.522Z,174.40
2019-01-26T05:40:17.477Z,186.90
2019-01-26T05:41:17.427Z,173.20
2019-01-26T05:42:17.378Z,167.20
2019-01-26T05:43:17.336Z,177.90
2019-01-26T05:44:17.284Z,180.80
2019-01-26T05:45:17.235Z,177.40
2019-01-26T05:46:17.190Z,181.60
2019-01-26T05:47:17.139Z,174.80
2019-01-26T05:48:17.083Z,179.90
2019-01-26T05:49:17.034Z,166.80
2019-01-26T05:50:16.991Z,172.80
2019-01-26T05:51:16.943Z,165.10
2019-01-26T05:52:16.889Z,178.90
2019-01-26T05:53:16.839Z,175.80
2019-01-26T05:54:16.789Z,167.60
2019-01-26T05:55:16.741Z,179.50
2019-01-26T05:56:16.695Z,174.10
2019-01-26T05:57:16.649Z,172.40
2019-01-26T05:58:16.598Z,161.20
2019-01-26T05:59:16.552Z,175.60
2019-01-26T06:00:16.495Z,160.90
2019-01-26T06:01:16.449Z,172.10
2019-01-26T06:02:16.399Z,155.00
2019-01-26T06:03:16.350Z,161.60
2019-01-26T06:04:16.301Z,153.60
2019-01-26T06:05:16.253Z,152.60
2019-01-26T06:06:16.206Z,154.00
2019-01-26T06:07:16.156Z,154.90
2019-01-26T06:08:16.110Z,151.80
2019-01-26T06:09:16.059Z,142.30
2019-01-26T06:10:16.059Z,150.90
2019-01-26T06:11:15.968Z,145.10
2019-01-26T06:12:15.914Z,147.40
2019-01-26T06:13:15.866Z,155.00
2019-01-26T06:14:15.816Z,151.70
2019-01-26T06:15:15.762Z,138.20
2019-01-26T06:16:15.715Z,155.10
2019-01-26T06:17:15.667Z,153.80
2019-01-26T06:18:17.010Z,140.40
2019-01-26T06:19:15.570Z,145.60
2019-01-26T06:20:15.520Z,141.10
2019-01-26T06:21:15.474Z,148.50
2019-01-26T06:22:15.425Z,136.40
2019-01-26T06:23:15.375Z,142.70
2019-01-26T06:24:15.326Z,132.30
2019-01-26T06:25:15.277Z,132.40
2019-01-26T06:26:15.234Z,135.20
2019-01-26T06:27:15.180Z,138.10
2019-01-26T06:28:15.131Z,137.80
2019-01-26T06:29:15.084Z,131.20
2019-01-26T06:30:15.035Z,128.70
2019-01-26T06:31:14.985Z,129.10
2019-01-26T06:32:16.454Z,129.20
2019-01-26T06:33:14.888Z,130.60
2019-01-26T06:34:14.840Z,135.20
2019-01-26T06:35:14.791Z,124.20
2019-01-26T06:36:14.743Z,130.30
2019-01-26T06:37:14.694Z,126.10
2019-01-26T06:38:14.643Z,130.90
2019-01-26T06:39:14.593Z,120.40
2019-01-26T06:40:14.545Z,128.70
2019-01-26T06:41:14.498Z,127.20
2019-01-26T06:42:14.447Z,116.40
2019-01-26T06:43:14.400Z,127.20
2019-01-26T06:44:14.353Z,122.90
2019-01-26T06:45:14.306Z,124.20
2019-01-26T06:46:14.256Z,116.20
2019-01-26T06:47:14.211Z,118.90
2019-01-26T06:48:14.170Z,112.10
2019-01-26T06:49:14.106Z,119.80
2019-01-26T06:50:14.080Z,118.80
2019-01-26T06:51:14.038Z,116.80
2019-01-26T06:52:13.960Z,115.40
2019-01-26T06:53:13.913Z,114.30
2019-01-26T06:54:13.864Z,114.40
2019-01-26T06:55:13.813Z,119.20
2019-01-26T06:56:13.802Z,112.90
2019-01-26T06:57:13.716Z,120.30
2019-01-26T06:58:13.671Z,110.90
2019-01-26T06:59:13.619Z,111.40
2019-01-26T07:00:13.580Z,113.70
2019-01-26T07:01:13.526Z,110.10
2019-01-26T07:02:13.474Z,112.50
2019-01-26T07:03:13.424Z,112.40
2019-01-26T07:04:13.376Z,109.40
2019-01-26T07:05:13.327Z,109.80
2019-01-26T07:06:13.278Z,110.90
2019-01-26T07:07:13.240Z,107.10
2019-01-26T07:08:13.181Z,105.80
2019-01-26T07:09:13.135Z,112.90
2019-01-26T07:10:13.092Z,112.80
2019-01-26T07:11:13.036Z,102.60
2019-01-26T07:12:12.984Z,106.90
2019-01-26T07:13:12.936Z,110.20
2019-01-26T07:14:12.889Z,101.90
2019-01-26T07:15:12.841Z,101.40
2019-01-26T07:16:12.791Z,103.30
2019-01-26T07:17:12.744Z,100.40
2019-01-26T07:18:12.692Z,98.50
2019-01-26T07:19:12.646Z,96.20
2019-01-26T07:20:12.611Z,100.20
2019-01-26T07:21:12.547Z,100.40
2019-01-26T07:22:12.499Z,101.80
2019-01-26T07:23:12.451Z,88.20
2019-01-26T07:24:12.404Z,96.60
2019-01-26T07:25:12.352Z,92.30
2019-01-26T07:26:12.309Z,92.20
2019-01-26T07:27:12.257Z,88.70
2019-01-26T07:28:12.209Z,94.90
2019-01-26T07:29:12.160Z,87.30
2019-01-26T07:30:12.110Z,90.30
2019-01-26T07:31:12.060Z,86.60
2019-01-26T07:32:12.011Z,91.10
2019-01-26T07:33:11.966Z,84.20
2019-01-26T07:34:11.916Z,88.10
2019-01-26T07:35:11.866Z,86.40
2019-01-26T07:36:11.817Z,86.30
2019-01-26T07:37:11.773Z,80.80
2019-01-26T07:38:13.779Z,81.30
2019-01-26T07:39:11.672Z,82.20
2019-01-26T07:40:11.622Z,79.60
2019-01-26T07:41:11.577Z,79.90
2019-01-26T07:42:11.526Z,77.30
2019-01-26T07:43:11.486Z,83.40
2019-01-26T07:44:11.432Z,74.80
2019-01-26T07:45:11.382Z,72.60
2019-01-26T07:46:11.334Z,75.40
2019-01-26T07:47:11.280Z,71.70
2019-01-26T07:48:16.706Z,69.70
2019-01-26T07:49:11.186Z,74.30
2019-01-26T07:50:11.135Z,78.10
2019-01-26T07:51:11.090Z,75.80
2019-01-26T07:52:11.039Z,73.70
2019-01-26T07:53:10.991Z,72.50
2019-01-26T07:54:10.947Z,72.40
2019-01-26T07:55:10.892Z,77.00
2019-01-26T07:56:10.852Z,67.60
2019-01-26T07:57:10.803Z,71.30
2019-01-26T07:58:10.749Z,68.50
2019-01-26T07:59:10.701Z,68.70
2019-01-26T08:00:10.684Z,67.90
2019-01-26T08:01:10.602Z,68.70
2019-01-26T08:02:10.554Z,67.40
2019-01-26T08:03:10.503Z,70.50
2019-01-26T08:04:10.458Z,70.90
2019-01-26T08:05:10.410Z,71.90
2019-01-26T08:06:10.362Z,73.60
2019-01-26T08:07:10.312Z,70.60
2019-01-26T08:08:10.261Z,71.30
2019-01-26T08:09:10.211Z,67.60
2019-01-26T08:10:10.230Z,70.10
2019-01-26T08:11:10.112Z,69.20
2019-01-26T08:12:10.070Z,73.70
2019-01-26T08:13:10.022Z,72.50
2019-01-26T08:14:09.971Z,76.30
2019-01-26T08:15:09.923Z,70.10
2019-01-26T08:16:09.872Z,82.50
2019-01-26T08:17:09.826Z,73.70
2019-01-26T08:18:09.775Z,80.20
2019-01-26T08:19:09.731Z,74.00
2019-01-26T08:20:09.679Z,72.00
2019-01-26T08:21:09.642Z,79.20
2019-01-26T08:22:09.582Z,77.00
2019-01-26T08:23:09.533Z,77.00
2019-01-26T08:24:09.484Z,77.20
2019-01-26T08:25:09.443Z,82.80
2019-01-26T08:26:09.386Z,80.80
2019-01-26T08:27:09.350Z,74.60
2019-01-26T08:28:09.292Z,83.30
2019-01-26T08:29:09.243Z,81.70
2019-01-26T08:30:09.194Z,80.00
2019-01-26T08:31:09.149Z,81.90
2019-01-26T08:32:09.096Z,78.20
2019-01-26T08:33:09.047Z,86.00
2019-01-26T08:34:09.002Z,87.00
2019-01-26T08:35:08.953Z,82.70
2019-01-26T08:36:08.907Z,83.90
2019-01-26T08:37:08.856Z,86.60
2019-01-26T08:38:08.803Z,87.30
2019-01-26T08:39:08.754Z,88.10
2019-01-26T08:40:08.710Z,85.70
2019-01-26T08:41:08.658Z,98.30
2019-01-26T08:42:08.619Z,91.00
2019-01-26T08:43:08.557Z,93.60
2019-01-26T08:44:08.515Z,91.30
2019-01-26T08:45:08.462Z,101.40
2019-01-26T08:46:08.415Z,91.10
2019-01-26T08:47:08.364Z,96.50
2019-01-26T08:48:08.321Z,96.90
2019-01-26T08:49:08.858Z,104.70
2019-01-26T08:50:08.223Z,99.80
2019-01-26T08:51:08.174Z,98.20
2019-01-26T08:52:08.123Z,101.70
2019-01-26T08:53:08.099Z,98.90
2019-01-26T08:54:08.027Z,90.50
2019-01-26T08:55:07.975Z,103.60
2019-01-26T08:56:07.926Z,101.20
2019-01-26T08:57:07.883Z,96.00
2019-01-26T08:58:07.832Z,104.30
2019-01-26T08:59:07.782Z,98.20
2019-01-26T09:00:07.734Z,100.00
2019-01-26T09:01:07.685Z,100.20
2019-01-26T09:02:07.639Z,97.00
2019-01-26T09:03:07.586Z,101.50
2019-01-26T09:04:07.543Z,109.10
2019-01-26T09:05:07.493Z,105.50
2019-01-26T09:06:07.445Z,104.40
2019-01-26T09:07:07.393Z,107.90
2019-01-26T09:08:07.351Z,103.00
2019-01-26T09:09:07.293Z,106.50
2019-01-26T09:10:07.247Z,108.20
2019-01-26T09:11:07.199Z,111.00
2019-01-26T09:12:07.153Z,106.80
2019-01-26T09:13:07.104Z,108.10
2019-01-26T09:14:07.052Z,109.10
2019-01-26T09:15:07.006Z,113.90
2019-01-26T09:16:06.955Z,107.50
2019-01-26T09:17:06.907Z,116.20
2019-01-26T09:18:06.857Z,104.60
2019-01-26T09:19:06.808Z,106.10
2019-01-26T09:20:06.768Z,102.30
2019-01-26T09:21:06.712Z,116.30
2019-01-26T09:22:06.663Z,115.70
2019-01-26T09:23:06.614Z,119.50
2019-01-26T09:24:06.567Z,106.30
2019-01-26T09:25:06.524Z,108.60
2019-01-26T09:26:06.471Z,102.20
2019-01-26T09:27:06.419Z,112.60
2019-01-26T09:28:06.375Z,110.40
2019-01-26T09:29:06.325Z,115.40
2019-01-26T09:30:06.274Z,112.20
2019-01-26T09:31:06.228Z,113.60
2019-01-26T09:32:06.177Z,110.20
2019-01-26T09:33:06.130Z,113.90
2019-01-26T09:34:06.083Z,108.90
2019-01-26T09:35:06.030Z,107.10
2019-01-26T09:36:05.981Z,118.30
2019-01-26T09:37:05.938Z,115.00
2019-01-26T09:38:05.893Z,115.80
2019-01-26T09:39:05.835Z,112.20
2019-01-26T09:40:05.787Z,105.50
2019-01-26T09:41:05.738Z,108.80
2019-01-26T09:42:05.703Z,118.50
2019-01-26T09:43:05.647Z,118.10
2019-01-26T09:44:05.593Z,116.70
2019-01-26T09:45:05.545Z,115.50
2019-01-26T09:46:05.503Z,105.80
2019-01-26T09:47:05.453Z,103.30
2019-01-26T09:48:05.414Z,113.70
2019-01-26T09:49:05.361Z,114.70
2019-01-26T09:50:05.302Z,110.60
2019-01-26T09:51:05.254Z,111.70
2019-01-26T09:52:05.202Z,112.90
2019-01-26T09:53:05.157Z,111.30
2019-01-26T09:54:05.106Z,118.10
2019-01-26T09:55:05.060Z,104.90
2019-01-26T09:56:05.007Z,113.10
2019-01-26T09:57:04.959Z,107.70
2019-01-26T09:58:04.910Z,108.20
2019-01-26T09:59:04.872Z,106.60
2019-01-26T10:00:04.817Z,102.60
2019-01-26T10:01:04.772Z,102.40
2019-01-26T10:02:04.716Z,97.70
2019-01-26T10:03:04.669Z,104.60
2019-01-26T10:04:04.619Z,99.10
2019-01-26T10:05:04.572Z,96.00
2019-01-26T10:06:04.522Z,92.50
2019-01-26T10:07:04.474Z,89.40
2019-01-26T10:08:04.425Z,92.40
2019-01-26T10:09:04.377Z,99.30
2019-01-26T10:10:04.329Z,88.70
2019-01-26T10:11:04.277Z,88.80
2019-01-26T10:12:04.229Z,88.90
2019-01-26T10:13:04.180Z,88.60
2019-01-26T10:14:04.131Z,87.20
2019-01-26T10:15:04.081Z,80.70
2019-01-26T10:16:04.051Z,83.50
2019-01-26T10:17:03.988Z,85.70
2019-01-26T10:18:03.943Z,87.00
2019-01-26T10:19:03.894Z,86.10
2019-01-26T10:20:03.839Z,85.70
2019-01-26T10:21:03.797Z,89.10
2019-01-26T10:22:03.744Z,82.40
2019-01-26T10:23:03.694Z,82.20
2019-01-26T10:24:03.645Z,75.50
2019-01-26T10:25:03.599Z,83.10
2019-01-26T10:26:03.552Z,76.10
2019-01-26T10:27:03.499Z,77.10
2019-01-26T10:28:03.452Z,80.40
2019-01-26T10:29:03.405Z,74.90
2019-01-26T10:30:03.353Z,76.60
2019-01-26T10:31:03.306Z,78.20
2019-01-26T10:32:03.257Z,72.30
2019-01-26T10:33:03.211Z,76.70
2019-01-26T10:34:03.161Z,72.70
2019-01-26T10:35:03.110Z,69.80
2019-01-26T10:36:03.060Z,67.10
2019-01-26T10:37:03.013Z,69.70
2019-01-26T10:38:02.967Z,71.50
2019-01-26T10:39:02.914Z,64.50
2019-01-26T10:40:02.869Z,71.30
2019-01-26T10:41:02.817Z,65.20
2019-01-26T10:42:02.774Z,67.60
2019-01-26T10:43:02.718Z,65.50
2019-01-26T10:44:02.670Z,69.70
2019-01-26T10:45:02.626Z,70.90
2019-01-26T10:46:02.583Z,66.80
2019-01-26T10:47:02.525Z,67.20
2019-01-26T10:48:02.476Z,62.50
2019-01-26T10:49:02.428Z,64.30
2019-01-26T10:50:02.378Z,59.90
2019-01-26T10:51:02.330Z,62.00
2019-01-26T10:52:02.282Z,68.00
2019-01-26T10:53:02.238Z,60.20
2019-01-26T10:54:02.185Z,58.10
2019-01-26T10:55:02.136Z,61.50
2019-01-26T10:56:02.089Z,62.10
2019-01-26T10:57:02.039Z,59.80
2019-01-26T10:58:01.992Z,62.70
2019-01-26T10:59:01.942Z,63.70
2019-01-26T11:00:01.901Z,61.70
2019-01-26T11:01:01.852Z,60.30
2019-01-26T11:02:01.796Z,61.00
2019-01-26T11:03:01.747Z,67.50
2019-01-26T11:04:01.699Z,58.50
2019-01-26T11:05:01.650Z,55.50
2019-01-26T11:06:01.601Z,62.10
2019-01-26T11:07:01.554Z,60.00
2019-01-26T11:08:01.503Z,62.70
2019-01-26T11:09:01.457Z,62.30
2019-01-26T11:10:01.484Z,57.10
2019-01-26T11:11:01.363Z,62.30
2019-01-26T11:12:01.312Z,62.20
2019-01-26T11:13:01.261Z,56.60
2019-01-26T11:14:01.214Z,57.30
2019-01-26T11:15:01.170Z,60.10
2019-01-26T11:16:01.116Z,62.30
2019-01-26T11:17:01.067Z,64.00
2019-01-26T11:18:01.027Z,64.10
2019-01-26T11:19:07.697Z,61.70
2019-01-26T11:20:00.927Z,55.00
2019-01-26T11:21:00.883Z,56.10
2019-01-26T11:22:00.825Z,59.30
2019-01-26T11:23:00.778Z,59.40
2019-01-26T11:24:00.729Z,61.80
2019-01-26T11:25:00.681Z,57.40
2019-01-26T11:26:00.639Z,54.00
2019-01-26T11:27:00.583Z,57.50
2019-01-26T11:28:00.540Z,66.20
2019-01-26T11:29:00.489Z,59.10
2019-01-26T11:30:00.439Z,59.20
2019-01-26T11:31:00.389Z,58.80
2019-01-26T11:32:00.339Z,59.20
2019-01-26T11:33:00.295Z,62.70
2019-01-26T11:34:00.244Z,59.10
2019-01-26T11:35:00.266Z,60.90
2019-01-26T11:36:00.146Z,59.20
2019-01-26T11:37:00.100Z,56.30
2019-01-26T11:38:00.053Z,54.90
2019-01-26T11:39:00.000Z,50.70
2019-01-26T11:39:59.954Z,54.00
2019-01-26T11:40:59.905Z,51.70
2019-01-26T11:41:59.856Z,55.60
2019-01-26T11:42:59.814Z,50.60
2019-01-26T11:43:59.758Z,49.50
2019-01-26T11:44:59.712Z,53.20
2019-01-26T11:45:59.663Z,50.70
2019-01-26T11:46:59.614Z,47.70
2019-01-26T11:47:59.568Z,52.50
2019-01-26T11:48:59.519Z,48.00
2019-01-26T11:49:59.473Z,47.10
2019-01-26T11:50:59.423Z,42.60
2019-01-26T11:51:59.375Z,46.40
2019-01-26T11:52:59.327Z,47.10
2019-01-26T11:53:59.279Z,47.50
2019-01-26T11:54:59.227Z,46.70
2019-01-26T11:55:59.180Z,47.50
2019-01-26T11:56:59.131Z,41.60
2019-01-26T11:57:59.081Z,46.80
2019-01-26T11:59:58.985Z,41.80
2019-01-26T12:00:59.551Z,44.50
2019-01-26T12:01:58.891Z,40.90
2019-01-26T12:02:58.863Z,38.00
2019-01-26T12:03:58.796Z,42.60
2019-01-26T12:04:58.758Z,39.10
2019-01-26T12:05:58.697Z,37.70
2019-01-26T12:06:58.649Z,40.00
2019-01-26T12:07:58.598Z,35.40
2019-01-26T12:08:58.554Z,35.00
2019-01-26T12:09:58.504Z,36.60
2019-01-26T12:10:58.458Z,36.70
2019-01-26T12:11:58.406Z,35.30
2019-01-26T12:12:58.359Z,35.20
2019-01-26T12:13:58.313Z,36.10
2019-01-26T12:14:58.263Z,38.10
2019-01-26T12:15:58.216Z,34.80
2019-01-26T12:16:58.168Z,34.20
2019-01-26T12:17:58.122Z,37.20
2019-01-26T12:18:58.072Z,36.60
2019-01-26T12:19:58.021Z,36.90
2019-01-26T12:20:57.974Z,36.60
2019-01-26T12:21:57.926Z,35.10
2019-01-26T12:22:57.876Z,36.30
2019-01-26T12:23:57.830Z,34.70
2019-01-26T12:24:57.782Z,34.20
2019-01-26T12:25:57.738Z,36.00
2019-01-26T12:26:57.688Z,31.80
2019-01-26T12:27:57.639Z,35.10
2019-01-26T12:28:57.587Z,33.70
2019-01-26T12:29:57.541Z,34.10
2019-01-26T12:30:57.494Z,32.10
2019-01-26T12:31:57.444Z,31.70
2019-01-26T12:32:57.402Z,31.60
2019-01-26T12:33:57.351Z,27.70
2019-01-26T12:34:57.299Z,28.30
2019-01-26T12:35:57.262Z,30.00
2019-01-26T12:36:57.208Z,27.60